Caapiranga, Brazil
Current Conditions -  °F | °C
As of 7:00 AM on Monday 20 Oct 2014 (Local Time) from SBEG Reporting Station
Scattered Clouds Scattered Clouds  
Wind Chill: 77°   Ceiling: Unl
Heat Index: 78°   Visibility: 6mi
Dew Point: 72°   Wind: 7mph
Humidity: 83%   Direction: 60°ENE
Pressure: 29.91"   Gusts: NA
Location:  3.3°S, 61.21°W
Report Text: SBEG 201100Z 06006KT 9999 SCT008 FEW025TCU SCT100 25/22 Q1013
Loading
Personal Weather Stations






























Interactive Weather Map
Tropical Storm Tracking
New forecast layout! Learn more

10-Day Weather Forecast

Advertisements
Track Severe Weather on mobile